Time,TemperatureF,DewpointF,PressureIn,WindDirection,WindDirectionDegrees,WindSpeedMPH,WindSpeedGustMPH,Humidity,HourlyPrecipIn,Conditions,Clouds,dailyrainin,SoftwareType,DateUTC
2013-06-09 01:05:00,59.3,55.4,29.97,North,0,1.0,5.0,87,0.01,,,-99.99,WeatherLink 5.5,2013-06-09 05:05:00,
2013-06-09 02:05:00,58.6,55.1,29.98,NE,45,0.0,3.0,88,0.00,,,-99.99,WeatherLink 5.5,2013-06-09 06:05:00,
2013-06-09 03:05:00,59.0,55.4,29.98,NE,45,0.0,4.0,88,0.00,,,-99.99,WeatherLink 5.5,2013-06-09 07:05:00,
2013-06-09 04:05:00,59.3,54.8,29.98,North,0,1.0,6.0,85,0.01,,,-99.99,WeatherLink 5.5,2013-06-09 08:05:00,
2013-06-09 05:05:00,57.6,54.4,29.99,North,0,0.0,3.0,89,0.00,,,-99.99,WeatherLink 5.5,2013-06-09 09:05:00,
2013-06-09 06:05:00,57.6,54.4,30.01,North,0,0.0,3.0,89,0.00,,,-99.99,WeatherLink 5.5,2013-06-09 10:05:00,
2013-06-09 07:05:00,58.9,55.0,30.02,North,0,2.0,5.0,87,0.01,,,-99.99,WeatherLink 5.5,2013-06-09 11:05:00,
2013-06-09 08:00:00,63.2,57.3,30.05,WSW,247,1.0,6.0,81,0.00,,,-99.99,WeatherLink 5.5,2013-06-09 12:00:00,
2013-06-09 09:00:00,67.4,58.4,30.05,West,270,2.0,10.0,73,0.00,,,-99.99,WeatherLink 5.5,2013-06-09 13:00:00,
2013-06-09 10:00:00,68.9,57.1,30.07,WSW,247,5.0,12.0,66,0.00,,,-99.99,WeatherLink 5.5,2013-06-09 14:00:00,
2013-06-09 11:00:00,71.6,55.6,30.06,NW,315,6.0,14.0,57,0.00,,,-99.99,WeatherLink 5.5,2013-06-09 15:00:00,
2013-06-09 12:00:00,73.3,55.6,30.06,West,270,4.0,12.0,54,0.01,,,-99.99,WeatherLink 5.5,2013-06-09 16:00:00,
2013-06-09 13:00:00,77.4,56.7,30.06,WNW,292,4.0,11.0,49,0.00,,,-99.99,WeatherLink 5.5,2013-06-09 17:00:00,
2013-06-09 14:00:00,78.1,55.0,30.05,West,270,3.0,12.0,45,0.00,,,-99.99,WeatherLink 5.5,2013-06-09 18:00:00,
2013-06-09 15:00:00,78.8,56.9,30.04,West,270,4.0,13.0,47,0.01,,,-99.99,WeatherLink 5.5,2013-06-09 19:00:00,
2013-06-09 16:00:00,78.3,54.6,30.04,West,270,5.0,14.0,44,0.00,,,-99.99,WeatherLink 5.5,2013-06-09 20:00:00,
2013-06-09 17:00:00,77.7,57.6,30.03,West,270,4.0,12.0,50,0.00,,,-99.99,WeatherLink 5.5,2013-06-09 21:00:00,
2013-06-09 18:00:00,76.8,57.3,30.03,West,270,5.0,13.0,51,0.00,,,-99.99,WeatherLink 5.5,2013-06-09 22:00:00,
2013-06-09 19:00:00,76.5,56.5,30.02,West,270,4.0,12.0,50,0.00,,,-99.99,WeatherLink 5.5,2013-06-09 23:00:00,
2013-06-09 20:00:00,75.4,57.1,30.04,WSW,247,2.0,9.0,53,0.00,,,-99.99,WeatherLink 5.5,2013-06-10 00:00:00,
2013-06-09 21:00:00,69.1,58.9,30.05,WSW,247,1.0,4.0,70,0.00,,,-99.99,WeatherLink 5.5,2013-06-10 01:00:00,
2013-06-09 22:05:00,67.8,55.6,30.06,North,-999,0.0,0.0,65,0.00,,,-99.99,WeatherLink 5.5,2013-06-10 02:05:00,
2013-06-09 23:05:00,62.7,53.9,30.08,North,-999,0.0,0.0,73,0.00,,,-99.99,WeatherLink 5.5,2013-06-10 03:05:00,